sensor_id;sensor_type;location;lat;lon;timestamp;P1;durP1;ratioP1;P2;durP2;ratioP2
32297;SDS011;18782;48.984;8.548;2023-03-17T00:01:54;7.95;;;3.90;;
32297;SDS011;18782;48.984;8.548;2023-03-17T00:04:22;8.73;;;4.07;;
32297;SDS011;18782;48.984;8.548;2023-03-17T00:06:52;11.65;;;4.72;;
32297;SDS011;18782;48.984;8.548;2023-03-17T00:09:21;8.40;;;3.88;;
32297;SDS011;18782;48.984;8.548;2023-03-17T00:11:51;6.43;;;3.25;;
32297;SDS011;18782;48.984;8.548;2023-03-17T00:14:19;7.53;;;3.28;;
32297;SDS011;18782;48.984;8.548;2023-03-17T00:16:50;7.57;;;3.65;;
32297;SDS011;18782;48.984;8.548;2023-03-17T00:19:20;9.20;;;4.03;;
32297;SDS011;18782;48.984;8.548;2023-03-17T00:21:52;8.23;;;4.40;;
32297;SDS011;18782;48.984;8.548;2023-03-17T00:24:21;8.77;;;4.38;;
32297;SDS011;18782;48.984;8.548;2023-03-17T00:26:48;7.80;;;3.90;;
32297;SDS011;18782;48.984;8.548;2023-03-17T00:29:17;6.72;;;3.60;;
32297;SDS011;18782;48.984;8.548;2023-03-17T00:31:45;6.57;;;3.63;;
32297;SDS011;18782;48.984;8.548;2023-03-17T00:34:14;5.68;;;3.58;;
32297;SDS011;18782;48.984;8.548;2023-03-17T00:36:45;7.45;;;3.38;;
32297;SDS011;18782;48.984;8.548;2023-03-17T00:39:15;4.75;;;3.00;;
32297;SDS011;18782;48.984;8.548;2023-03-17T00:41:44;5.78;;;2.78;;
32297;SDS011;18782;48.984;8.548;2023-03-17T00:44:10;5.78;;;3.10;;
32297;SDS011;18782;48.984;8.548;2023-03-17T00:46:39;7.88;;;3.60;;
32297;SDS011;18782;48.984;8.548;2023-03-17T00:49:12;5.45;;;3.00;;
32297;SDS011;18782;48.984;8.548;2023-03-17T00:51:41;6.97;;;3.28;;
32297;SDS011;18782;48.984;8.548;2023-03-17T00:54:09;7.63;;;3.22;;
32297;SDS011;18782;48.984;8.548;2023-03-17T00:56:38;4.75;;;2.75;;
32297;SDS011;18782;48.984;8.548;2023-03-17T00:59:08;5.55;;;3.15;;
32297;SDS011;18782;48.984;8.548;2023-03-17T01:01:47;5.68;;;3.15;;
32297;SDS011;18782;48.984;8.548;2023-03-17T01:04:15;5.57;;;2.75;;
32297;SDS011;18782;48.984;8.548;2023-03-17T01:06:44;4.85;;;2.92;;
32297;SDS011;18782;48.984;8.548;2023-03-17T01:09:13;4.20;;;2.60;;
32297;SDS011;18782;48.984;8.548;2023-03-17T01:11:41;4.80;;;2.75;;
32297;SDS011;18782;48.984;8.548;2023-03-17T01:14:09;4.45;;;2.67;;
32297;SDS011;18782;48.984;8.548;2023-03-17T01:16:38;5.22;;;2.83;;
32297;SDS011;18782;48.984;8.548;2023-03-17T01:19:07;5.32;;;2.78;;
32297;SDS011;18782;48.984;8.548;2023-03-17T01:21:36;6.47;;;2.70;;
32297;SDS011;18782;48.984;8.548;2023-03-17T01:24:04;4.78;;;2.40;;
32297;SDS011;18782;48.984;8.548;2023-03-17T01:26:33;3.55;;;2.42;;
32297;SDS011;18782;48.984;8.548;2023-03-17T01:29:01;6.13;;;2.45;;
32297;SDS011;18782;48.984;8.548;2023-03-17T01:31:29;4.55;;;2.70;;
32297;SDS011;18782;48.984;8.548;2023-03-17T01:33:57;5.10;;;2.53;;
32297;SDS011;18782;48.984;8.548;2023-03-17T01:36:26;4.43;;;2.58;;
32297;SDS011;18782;48.984;8.548;2023-03-17T01:38:54;5.55;;;2.80;;
32297;SDS011;18782;48.984;8.548;2023-03-17T01:41:22;4.72;;;2.45;;
32297;SDS011;18782;48.984;8.548;2023-03-17T01:43:50;7.70;;;2.38;;
32297;SDS011;18782;48.984;8.548;2023-03-17T01:46:19;4.47;;;2.60;;
32297;SDS011;18782;48.984;8.548;2023-03-17T01:48:59;4.07;;;2.55;;
32297;SDS011;18782;48.984;8.548;2023-03-17T01:51:46;5.75;;;2.38;;
32297;SDS011;18782;48.984;8.548;2023-03-17T01:54:21;6.15;;;3.10;;
32297;SDS011;18782;48.984;8.548;2023-03-17T01:56:53;5.78;;;2.90;;
32297;SDS011;18782;48.984;8.548;2023-03-17T01:59:24;4.57;;;2.60;;
32297;SDS011;18782;48.984;8.548;2023-03-17T02:01:58;5.50;;;2.60;;
32297;SDS011;18782;48.984;8.548;2023-03-17T02:04:31;4.65;;;2.80;;
32297;SDS011;18782;48.984;8.548;2023-03-17T02:07:01;4.13;;;2.42;;
32297;SDS011;18782;48.984;8.548;2023-03-17T02:09:30;4.28;;;2.80;;
32297;SDS011;18782;48.984;8.548;2023-03-17T02:11:59;5.45;;;2.50;;
32297;SDS011;18782;48.984;8.548;2023-03-17T02:14:29;3.78;;;2.25;;
32297;SDS011;18782;48.984;8.548;2023-03-17T02:16:56;4.18;;;2.53;;
32297;SDS011;18782;48.984;8.548;2023-03-17T02:19:24;4.47;;;2.53;;
32297;SDS011;18782;48.984;8.548;2023-03-17T02:21:54;6.30;;;3.13;;
32297;SDS011;18782;48.984;8.548;2023-03-17T02:24:27;5.90;;;2.72;;
32297;SDS011;18782;48.984;8.548;2023-03-17T02:26:59;3.38;;;2.40;;
32297;SDS011;18782;48.984;8.548;2023-03-17T02:29:32;4.85;;;2.90;;
32297;SDS011;18782;48.984;8.548;2023-03-17T02:32:01;4.68;;;2.55;;
32297;SDS011;18782;48.984;8.548;2023-03-17T02:34:29;5.03;;;2.38;;
32297;SDS011;18782;48.984;8.548;2023-03-17T02:36:59;3.58;;;2.17;;
32297;SDS011;18782;48.984;8.548;2023-03-17T02:39:28;4.13;;;2.05;;
32297;SDS011;18782;48.984;8.548;2023-03-17T02:41:57;2.92;;;1.77;;
32297;SDS011;18782;48.984;8.548;2023-03-17T02:44:25;5.38;;;2.38;;
32297;SDS011;18782;48.984;8.548;2023-03-17T02:46:52;3.60;;;2.03;;
32297;SDS011;18782;48.984;8.548;2023-03-17T02:49:20;4.88;;;2.20;;
32297;SDS011;18782;48.984;8.548;2023-03-17T02:51:49;4.07;;;2.40;;
32297;SDS011;18782;48.984;8.548;2023-03-17T02:54:18;7.22;;;2.45;;
32297;SDS011;18782;48.984;8.548;2023-03-17T02:56:46;3.47;;;2.13;;
32297;SDS011;18782;48.984;8.548;2023-03-17T02:59:14;3.75;;;2.25;;
32297;SDS011;18782;48.984;8.548;2023-03-17T03:01:42;4.65;;;2.30;;
32297;SDS011;18782;48.984;8.548;2023-03-17T03:04:10;6.07;;;2.92;;
32297;SDS011;18782;48.984;8.548;2023-03-17T03:06:38;4.13;;;2.30;;
32297;SDS011;18782;48.984;8.548;2023-03-17T03:09:07;4.00;;;2.10;;
32297;SDS011;18782;48.984;8.548;2023-03-17T03:11:38;4.22;;;2.55;;
32297;SDS011;18782;48.984;8.548;2023-03-17T03:14:06;4.57;;;2.38;;
32297;SDS011;18782;48.984;8.548;2023-03-17T03:16:34;8.60;;;4.30;;
32297;SDS011;18782;48.984;8.548;2023-03-17T03:19:02;13.15;;;5.65;;
32297;SDS011;18782;48.984;8.548;2023-03-17T03:21:30;6.13;;;3.00;;
32297;SDS011;18782;48.984;8.548;2023-03-17T03:23:57;6.45;;;2.42;;
32297;SDS011;18782;48.984;8.548;2023-03-17T03:26:25;3.20;;;2.17;;
32297;SDS011;18782;48.984;8.548;2023-03-17T03:28:54;3.25;;;2.00;;
32297;SDS011;18782;48.984;8.548;2023-03-17T03:31:23;4.43;;;2.25;;
32297;SDS011;18782;48.984;8.548;2023-03-17T03:33:51;4.10;;;1.90;;
32297;SDS011;18782;48.984;8.548;2023-03-17T03:36:21;4.93;;;2.40;;
32297;SDS011;18782;48.984;8.548;2023-03-17T03:38:48;5.40;;;2.47;;
32297;SDS011;18782;48.984;8.548;2023-03-17T03:41:16;3.75;;;1.90;;
32297;SDS011;18782;48.984;8.548;2023-03-17T03:43:44;3.65;;;1.92;;
32297;SDS011;18782;48.984;8.548;2023-03-17T03:46:13;3.35;;;1.95;;
32297;SDS011;18782;48.984;8.548;2023-03-17T03:48:41;5.10;;;2.15;;
32297;SDS011;18782;48.984;8.548;2023-03-17T03:51:08;5.38;;;2.60;;
32297;SDS011;18782;48.984;8.548;2023-03-17T03:53:36;4.93;;;2.20;;
32297;SDS011;18782;48.984;8.548;2023-03-17T03:56:04;2.85;;;1.88;;
32297;SDS011;18782;48.984;8.548;2023-03-17T03:58:32;3.45;;;2.25;;
32297;SDS011;18782;48.984;8.548;2023-03-17T04:01:02;3.95;;;1.90;;
32297;SDS011;18782;48.984;8.548;2023-03-17T04:03:32;5.70;;;2.25;;
32297;SDS011;18782;48.984;8.548;2023-03-17T04:06:00;3.83;;;2.03;;
32297;SDS011;18782;48.984;8.548;2023-03-17T04:08:29;3.50;;;1.92;;
32297;SDS011;18782;48.984;8.548;2023-03-17T04:10:57;8.45;;;2.65;;
32297;SDS011;18782;48.984;8.548;2023-03-17T04:13:25;5.10;;;2.70;;
32297;SDS011;18782;48.984;8.548;2023-03-17T04:15:53;3.80;;;1.90;;
32297;SDS011;18782;48.984;8.548;2023-03-17T04:18:20;5.18;;;2.08;;
32297;SDS011;18782;48.984;8.548;2023-03-17T04:20:50;4.13;;;2.20;;
32297;SDS011;18782;48.984;8.548;2023-03-17T04:23:17;3.83;;;1.95;;
32297;SDS011;18782;48.984;8.548;2023-03-17T04:25:45;4.68;;;2.20;;
32297;SDS011;18782;48.984;8.548;2023-03-17T04:28:13;5.43;;;2.88;;
32297;SDS011;18782;48.984;8.548;2023-03-17T04:30:40;5.13;;;2.63;;
32297;SDS011;18782;48.984;8.548;2023-03-17T04:33:10;4.05;;;2.13;;
32297;SDS011;18782;48.984;8.548;2023-03-17T04:35:38;5.60;;;2.22;;
32297;SDS011;18782;48.984;8.548;2023-03-17T04:38:08;3.85;;;1.80;;
32297;SDS011;18782;48.984;8.548;2023-03-17T04:40:38;3.75;;;2.10;;
32297;SDS011;18782;48.984;8.548;2023-03-17T04:43:06;4.38;;;2.13;;
32297;SDS011;18782;48.984;8.548;2023-03-17T04:45:35;3.53;;;1.75;;
32297;SDS011;18782;48.984;8.548;2023-03-17T04:48:03;3.25;;;1.77;;
32297;SDS011;18782;48.984;8.548;2023-03-17T04:50:32;2.47;;;1.80;;
32297;SDS011;18782;48.984;8.548;2023-03-17T04:52:59;4.43;;;1.80;;
32297;SDS011;18782;48.984;8.548;2023-03-17T04:55:28;3.22;;;1.85;;
32297;SDS011;18782;48.984;8.548;2023-03-17T04:57:56;7.22;;;2.00;;
32297;SDS011;18782;48.984;8.548;2023-03-17T05:00:24;3.90;;;2.10;;
32297;SDS011;18782;48.984;8.548;2023-03-17T05:02:52;2.85;;;1.90;;
32297;SDS011;18782;48.984;8.548;2023-03-17T05:05:19;5.63;;;1.98;;
32297;SDS011;18782;48.984;8.548;2023-03-17T05:07:47;2.92;;;1.85;;
32297;SDS011;18782;48.984;8.548;2023-03-17T05:10:14;5.38;;;1.85;;
32297;SDS011;18782;48.984;8.548;2023-03-17T05:12:43;4.25;;;1.95;;
32297;SDS011;18782;48.984;8.548;2023-03-17T05:15:11;4.55;;;1.92;;
32297;SDS011;18782;48.984;8.548;2023-03-17T05:17:39;5.65;;;2.00;;
32297;SDS011;18782;48.984;8.548;2023-03-17T05:20:07;3.78;;;2.25;;
32297;SDS011;18782;48.984;8.548;2023-03-17T05:22:36;5.55;;;2.47;;
32297;SDS011;18782;48.984;8.548;2023-03-17T05:25:03;3.97;;;1.90;;
32297;SDS011;18782;48.984;8.548;2023-03-17T05:27:31;3.92;;;2.28;;
32297;SDS011;18782;48.984;8.548;2023-03-17T05:30:00;3.80;;;1.92;;
32297;SDS011;18782;48.984;8.548;2023-03-17T05:32:28;5.03;;;1.98;;
32297;SDS011;18782;48.984;8.548;2023-03-17T05:34:57;2.67;;;1.60;;
32297;SDS011;18782;48.984;8.548;2023-03-17T05:37:25;4.68;;;2.05;;
32297;SDS011;18782;48.984;8.548;2023-03-17T05:39:52;5.03;;;2.20;;
32297;SDS011;18782;48.984;8.548;2023-03-17T05:42:20;4.53;;;1.67;;
32297;SDS011;18782;48.984;8.548;2023-03-17T05:44:47;5.88;;;2.40;;
32297;SDS011;18782;48.984;8.548;2023-03-17T05:47:16;4.70;;;2.60;;
32297;SDS011;18782;48.984;8.548;2023-03-17T05:49:44;7.15;;;2.65;;
32297;SDS011;18782;48.984;8.548;2023-03-17T05:52:12;3.65;;;2.13;;
32297;SDS011;18782;48.984;8.548;2023-03-17T05:54:39;6.10;;;3.10;;
32297;SDS011;18782;48.984;8.548;2023-03-17T05:57:07;4.65;;;2.85;;
32297;SDS011;18782;48.984;8.548;2023-03-17T05:59:37;8.00;;;2.75;;
32297;SDS011;18782;48.984;8.548;2023-03-17T06:02:04;13.77;;;8.00;;
32297;SDS011;18782;48.984;8.548;2023-03-17T06:04:33;8.27;;;4.07;;
32297;SDS011;18782;48.984;8.548;2023-03-17T06:07:01;5.38;;;2.47;;
32297;SDS011;18782;48.984;8.548;2023-03-17T06:09:30;14.50;;;3.47;;
32297;SDS011;18782;48.984;8.548;2023-03-17T06:11:58;3.35;;;2.00;;
32297;SDS011;18782;48.984;8.548;2023-03-17T06:14:26;3.95;;;2.60;;
32297;SDS011;18782;48.984;8.548;2023-03-17T06:16:53;5.53;;;2.05;;
32297;SDS011;18782;48.984;8.548;2023-03-17T06:19:21;3.90;;;2.05;;
32297;SDS011;18782;48.984;8.548;2023-03-17T06:21:50;4.28;;;2.30;;
32297;SDS011;18782;48.984;8.548;2023-03-17T06:24:18;5.32;;;2.17;;
32297;SDS011;18782;48.984;8.548;2023-03-17T06:26:45;3.55;;;2.13;;
32297;SDS011;18782;48.984;8.548;2023-03-17T06:29:13;4.60;;;1.98;;
32297;SDS011;18782;48.984;8.548;2023-03-17T06:31:40;3.42;;;1.88;;
32297;SDS011;18782;48.984;8.548;2023-03-17T06:34:15;4.28;;;2.83;;
32297;SDS011;18782;48.984;8.548;2023-03-17T06:36:43;4.70;;;2.35;;
32297;SDS011;18782;48.984;8.548;2023-03-17T06:39:12;5.85;;;2.40;;
32297;SDS011;18782;48.984;8.548;2023-03-17T06:41:41;5.97;;;2.03;;
32297;SDS011;18782;48.984;8.548;2023-03-17T06:44:08;4.20;;;2.00;;
32297;SDS011;18782;48.984;8.548;2023-03-17T06:46:36;3.92;;;2.00;;
32297;SDS011;18782;48.984;8.548;2023-03-17T06:49:04;4.28;;;2.10;;
32297;SDS011;18782;48.984;8.548;2023-03-17T06:51:33;6.28;;;2.17;;
32297;SDS011;18782;48.984;8.548;2023-03-17T06:54:02;4.72;;;1.77;;
32297;SDS011;18782;48.984;8.548;2023-03-17T06:56:31;3.33;;;1.65;;
32297;SDS011;18782;48.984;8.548;2023-03-17T06:58:59;3.90;;;2.03;;
32297;SDS011;18782;48.984;8.548;2023-03-17T07:01:26;4.75;;;1.73;;
32297;SDS011;18782;48.984;8.548;2023-03-17T07:03:54;4.75;;;2.40;;
32297;SDS011;18782;48.984;8.548;2023-03-17T07:06:22;7.05;;;4.22;;
32297;SDS011;18782;48.984;8.548;2023-03-17T07:08:49;12.05;;;6.25;;
32297;SDS011;18782;48.984;8.548;2023-03-17T07:11:17;10.32;;;4.68;;
32297;SDS011;18782;48.984;8.548;2023-03-17T07:13:46;7.80;;;4.25;;
32297;SDS011;18782;48.984;8.548;2023-03-17T07:16:14;5.47;;;3.28;;
32297;SDS011;18782;48.984;8.548;2023-03-17T07:18:44;3.97;;;2.30;;
32297;SDS011;18782;48.984;8.548;2023-03-17T07:21:12;5.63;;;2.30;;
32297;SDS011;18782;48.984;8.548;2023-03-17T07:23:40;5.57;;;2.55;;
32297;SDS011;18782;48.984;8.548;2023-03-17T07:26:08;5.05;;;1.95;;
32297;SDS011;18782;48.984;8.548;2023-03-17T07:28:36;5.15;;;2.45;;
32297;SDS011;18782;48.984;8.548;2023-03-17T07:31:05;3.97;;;2.28;;
32297;SDS011;18782;48.984;8.548;2023-03-17T07:33:34;4.43;;;2.40;;
32297;SDS011;18782;48.984;8.548;2023-03-17T07:36:02;5.88;;;2.90;;
32297;SDS011;18782;48.984;8.548;2023-03-17T07:38:32;4.65;;;2.45;;
32297;SDS011;18782;48.984;8.548;2023-03-17T07:41:00;5.50;;;2.00;;
32297;SDS011;18782;48.984;8.548;2023-03-17T07:43:28;4.25;;;2.20;;
32297;SDS011;18782;48.984;8.548;2023-03-17T07:45:57;4.72;;;2.40;;
32297;SDS011;18782;48.984;8.548;2023-03-17T07:48:26;5.68;;;2.45;;
32297;SDS011;18782;48.984;8.548;2023-03-17T07:50:53;6.28;;;2.33;;
32297;SDS011;18782;48.984;8.548;2023-03-17T07:53:21;4.70;;;2.58;;
32297;SDS011;18782;48.984;8.548;2023-03-17T07:55:49;6.68;;;2.70;;
32297;SDS011;18782;48.984;8.548;2023-03-17T07:58:16;4.80;;;2.65;;
32297;SDS011;18782;48.984;8.548;2023-03-17T08:00:46;6.90;;;2.53;;
32297;SDS011;18782;48.984;8.548;2023-03-17T08:03:14;4.18;;;2.60;;
32297;SDS011;18782;48.984;8.548;2023-03-17T08:05:43;5.35;;;2.83;;
32297;SDS011;18782;48.984;8.548;2023-03-17T08:08:12;9.80;;;5.20;;
32297;SDS011;18782;48.984;8.548;2023-03-17T08:10:40;8.68;;;3.80;;
32297;SDS011;18782;48.984;8.548;2023-03-17T08:13:08;4.45;;;3.13;;
32297;SDS011;18782;48.984;8.548;2023-03-17T08:15:35;7.03;;;2.63;;
32297;SDS011;18782;48.984;8.548;2023-03-17T08:18:03;5.93;;;2.67;;
32297;SDS011;18782;48.984;8.548;2023-03-17T08:20:32;4.80;;;2.13;;
32297;SDS011;18782;48.984;8.548;2023-03-17T08:23:01;4.53;;;2.05;;
32297;SDS011;18782;48.984;8.548;2023-03-17T08:25:29;6.10;;;2.45;;
32297;SDS011;18782;48.984;8.548;2023-03-17T08:27:57;2.90;;;1.40;;
32297;SDS011;18782;48.984;8.548;2023-03-17T08:30:24;2.38;;;1.30;;
32297;SDS011;18782;48.984;8.548;2023-03-17T08:32:52;3.47;;;1.67;;
32297;SDS011;18782;48.984;8.548;2023-03-17T08:35:20;3.50;;;1.60;;
32297;SDS011;18782;48.984;8.548;2023-03-17T08:37:49;3.00;;;1.27;;
32297;SDS011;18782;48.984;8.548;2023-03-17T08:40:19;3.53;;;1.27;;
32297;SDS011;18782;48.984;8.548;2023-03-17T08:42:47;3.95;;;1.30;;
32297;SDS011;18782;48.984;8.548;2023-03-17T08:45:15;2.63;;;1.20;;
32297;SDS011;18782;48.984;8.548;2023-03-17T08:47:44;2.58;;;1.17;;
32297;SDS011;18782;48.984;8.548;2023-03-17T08:50:15;2.60;;;1.42;;
32297;SDS011;18782;48.984;8.548;2023-03-17T08:52:45;2.67;;;1.20;;
32297;SDS011;18782;48.984;8.548;2023-03-17T08:55:13;2.03;;;0.95;;
32297;SDS011;18782;48.984;8.548;2023-03-17T08:57:44;2.03;;;0.90;;
32297;SDS011;18782;48.984;8.548;2023-03-17T09:00:13;2.10;;;0.77;;
32297;SDS011;18782;48.984;8.548;2023-03-17T09:02:45;1.20;;;0.60;;
32297;SDS011;18782;48.984;8.548;2023-03-17T09:05:14;2.78;;;0.63;;
32297;SDS011;18782;48.984;8.548;2023-03-17T09:07:43;2.75;;;0.75;;
32297;SDS011;18782;48.984;8.548;2023-03-17T09:10:11;1.73;;;0.70;;
32297;SDS011;18782;48.984;8.548;2023-03-17T09:16:54;1.67;;;0.77;;
32297;SDS011;18782;48.984;8.548;2023-03-17T09:19:22;1.88;;;0.98;;
32297;SDS011;18782;48.984;8.548;2023-03-17T09:21:50;2.60;;;1.00;;
32297;SDS011;18782;48.984;8.548;2023-03-17T09:24:18;1.85;;;0.88;;
32297;SDS011;18782;48.984;8.548;2023-03-17T09:26:47;3.42;;;1.30;;
32297;SDS011;18782;48.984;8.548;2023-03-17T09:29:14;3.03;;;1.40;;
32297;SDS011;18782;48.984;8.548;2023-03-17T09:31:42;2.15;;;1.08;;
32297;SDS011;18782;48.984;8.548;2023-03-17T09:34:11;2.58;;;1.23;;
32297;SDS011;18782;48.984;8.548;2023-03-17T09:36:38;2.85;;;1.02;;
32297;SDS011;18782;48.984;8.548;2023-03-17T09:39:06;2.17;;;1.20;;
32297;SDS011;18782;48.984;8.548;2023-03-17T09:41:41;2.50;;;0.93;;
32297;SDS011;18782;48.984;8.548;2023-03-17T09:44:28;2.25;;;1.17;;
32297;SDS011;18782;48.984;8.548;2023-03-17T09:47:08;2.53;;;0.85;;
32297;SDS011;18782;48.984;8.548;2023-03-17T09:49:49;1.70;;;0.88;;
32297;SDS011;18782;48.984;8.548;2023-03-17T09:52:21;1.88;;;0.75;;
32297;SDS011;18782;48.984;8.548;2023-03-17T09:54:53;2.60;;;0.85;;
32297;SDS011;18782;48.984;8.548;2023-03-17T09:57:23;3.60;;;1.50;;
32297;SDS011;18782;48.984;8.548;2023-03-17T09:59:56;3.40;;;1.10;;
32297;SDS011;18782;48.984;8.548;2023-03-17T10:02:33;5.85;;;2.42;;
32297;SDS011;18782;48.984;8.548;2023-03-17T10:05:09;1.80;;;1.02;;
32297;SDS011;18782;48.984;8.548;2023-03-17T10:07:45;2.90;;;0.90;;
32297;SDS011;18782;48.984;8.548;2023-03-17T10:10:22;3.53;;;0.95;;
32297;SDS011;18782;48.984;8.548;2023-03-17T10:12:58;2.92;;;1.33;;
32297;SDS011;18782;48.984;8.548;2023-03-17T10:15:36;2.20;;;1.30;;
32297;SDS011;18782;48.984;8.548;2023-03-17T10:18:11;5.65;;;2.17;;
32297;SDS011;18782;48.984;8.548;2023-03-17T10:20:43;3.33;;;1.67;;
32297;SDS011;18782;48.984;8.548;2023-03-17T10:23:18;2.30;;;0.98;;
32297;SDS011;18782;48.984;8.548;2023-03-17T10:28:22;7.20;;;3.53;;
32297;SDS011;18782;48.984;8.548;2023-03-17T10:30:52;1.55;;;0.98;;
32297;SDS011;18782;48.984;8.548;2023-03-17T10:33:20;1.63;;;0.90;;
32297;SDS011;18782;48.984;8.548;2023-03-17T10:35:49;4.90;;;1.58;;
32297;SDS011;18782;48.984;8.548;2023-03-17T10:38:18;2.25;;;0.93;;
32297;SDS011;18782;48.984;8.548;2023-03-17T10:40:53;8.23;;;2.10;;
32297;SDS011;18782;48.984;8.548;2023-03-17T10:43:26;2.35;;;1.10;;
32297;SDS011;18782;48.984;8.548;2023-03-17T10:45:59;1.45;;;0.80;;
32297;SDS011;18782;48.984;8.548;2023-03-17T10:48:28;1.63;;;0.85;;
32297;SDS011;18782;48.984;8.548;2023-03-17T10:50:58;1.45;;;0.77;;
32297;SDS011;18782;48.984;8.548;2023-03-17T10:53:26;19.98;;;6.30;;
32297;SDS011;18782;48.984;8.548;2023-03-17T10:55:55;3.60;;;1.70;;
32297;SDS011;18782;48.984;8.548;2023-03-17T10:58:31;1.42;;;0.73;;
32297;SDS011;18782;48.984;8.548;2023-03-17T11:01:05;3.50;;;1.05;;
32297;SDS011;18782;48.984;8.548;2023-03-17T11:03:35;2.42;;;1.40;;
32297;SDS011;18782;48.984;8.548;2023-03-17T11:06:08;2.50;;;0.88;;
32297;SDS011;18782;48.984;8.548;2023-03-17T11:08:38;1.73;;;0.90;;
32297;SDS011;18782;48.984;8.548;2023-03-17T11:11:09;1.02;;;0.73;;
32297;SDS011;18782;48.984;8.548;2023-03-17T11:13:48;1.63;;;1.08;;
32297;SDS011;18782;48.984;8.548;2023-03-17T11:16:17;4.13;;;1.00;;
32297;SDS011;18782;48.984;8.548;2023-03-17T11:18:49;2.25;;;0.93;;
32297;SDS011;18782;48.984;8.548;2023-03-17T11:21:23;2.20;;;1.25;;
32297;SDS011;18782;48.984;8.548;2023-03-17T11:23:56;2.00;;;1.10;;
32297;SDS011;18782;48.984;8.548;2023-03-17T11:26:38;2.83;;;1.30;;
32297;SDS011;18782;48.984;8.548;2023-03-17T11:29:16;2.50;;;1.42;;
32297;SDS011;18782;48.984;8.548;2023-03-17T11:31:52;2.03;;;0.95;;
32297;SDS011;18782;48.984;8.548;2023-03-17T11:34:28;1.75;;;1.10;;
32297;SDS011;18782;48.984;8.548;2023-03-17T11:37:09;3.83;;;1.17;;
32297;SDS011;18782;48.984;8.548;2023-03-17T11:39:46;3.80;;;1.13;;
32297;SDS011;18782;48.984;8.548;2023-03-17T11:42:22;3.50;;;1.20;;
32297;SDS011;18782;48.984;8.548;2023-03-17T11:44:56;2.08;;;1.00;;
32297;SDS011;18782;48.984;8.548;2023-03-17T11:47:40;3.15;;;1.40;;
32297;SDS011;18782;48.984;8.548;2023-03-17T11:50:22;2.25;;;1.17;;
32297;SDS011;18782;48.984;8.548;2023-03-17T11:53:00;2.83;;;1.23;;
32297;SDS011;18782;48.984;8.548;2023-03-17T11:55:39;2.67;;;1.10;;
32297;SDS011;18782;48.984;8.548;2023-03-17T11:58:12;4.28;;;1.30;;
32297;SDS011;18782;48.984;8.548;2023-03-17T12:00:49;1.95;;;1.02;;
32297;SDS011;18782;48.984;8.548;2023-03-17T12:05:55;1.88;;;1.45;;
32297;SDS011;18782;48.984;8.548;2023-03-17T12:08:29;4.00;;;1.17;;
32297;SDS011;18782;48.984;8.548;2023-03-17T12:11:04;1.88;;;1.10;;
32297;SDS011;18782;48.984;8.548;2023-03-17T12:13:36;2.35;;;1.08;;
32297;SDS011;18782;48.984;8.548;2023-03-17T12:16:08;2.27;;;1.00;;
32297;SDS011;18782;48.984;8.548;2023-03-17T12:18:42;3.85;;;1.30;;
32297;SDS011;18782;48.984;8.548;2023-03-17T12:21:21;3.97;;;1.90;;
32297;SDS011;18782;48.984;8.548;2023-03-17T12:23:58;3.33;;;1.40;;
32297;SDS011;18782;48.984;8.548;2023-03-17T12:26:32;2.95;;;1.40;;
32297;SDS011;18782;48.984;8.548;2023-03-17T12:29:04;2.92;;;1.10;;
32297;SDS011;18782;48.984;8.548;2023-03-17T12:31:38;1.25;;;0.80;;
32297;SDS011;18782;48.984;8.548;2023-03-17T12:34:12;2.42;;;1.05;;
32297;SDS011;18782;48.984;8.548;2023-03-17T12:36:46;2.00;;;1.13;;
32297;SDS011;18782;48.984;8.548;2023-03-17T12:39:17;2.13;;;1.10;;
32297;SDS011;18782;48.984;8.548;2023-03-17T12:41:52;2.67;;;1.20;;
32297;SDS011;18782;48.984;8.548;2023-03-17T12:44:35;2.45;;;1.23;;
32297;SDS011;18782;48.984;8.548;2023-03-17T12:47:31;9.85;;;6.40;;
32297;SDS011;18782;48.984;8.548;2023-03-17T12:50:18;6.30;;;4.03;;
32297;SDS011;18782;48.984;8.548;2023-03-17T12:53:12;6.07;;;2.35;;
32297;SDS011;18782;48.984;8.548;2023-03-17T12:55:53;4.00;;;1.67;;
32297;SDS011;18782;48.984;8.548;2023-03-17T12:58:26;2.97;;;1.10;;
32297;SDS011;18782;48.984;8.548;2023-03-17T13:01:00;3.90;;;1.48;;
32297;SDS011;18782;48.984;8.548;2023-03-17T13:03:34;3.08;;;1.63;;
32297;SDS011;18782;48.984;8.548;2023-03-17T13:06:04;2.63;;;1.10;;
32297;SDS011;18782;48.984;8.548;2023-03-17T13:08:41;4.22;;;1.48;;
32297;SDS011;18782;48.984;8.548;2023-03-17T13:11:14;3.08;;;1.20;;
32297;SDS011;18782;48.984;8.548;2023-03-17T13:13:46;3.55;;;1.20;;
32297;SDS011;18782;48.984;8.548;2023-03-17T13:16:25;1.52;;;0.98;;
32297;SDS011;18782;48.984;8.548;2023-03-17T13:19:15;2.65;;;1.15;;
32297;SDS011;18782;48.984;8.548;2023-03-17T13:21:49;2.97;;;1.35;;
32297;SDS011;18782;48.984;8.548;2023-03-17T13:27:12;5.32;;;1.40;;
32297;SDS011;18782;48.984;8.548;2023-03-17T13:29:44;3.38;;;1.02;;
32297;SDS011;18782;48.984;8.548;2023-03-17T13:32:32;2.55;;;1.30;;
32297;SDS011;18782;48.984;8.548;2023-03-17T13:35:16;1.77;;;1.00;;
32297;SDS011;18782;48.984;8.548;2023-03-17T13:40:55;3.83;;;1.30;;
32297;SDS011;18782;48.984;8.548;2023-03-17T13:43:42;4.10;;;1.10;;
32297;SDS011;18782;48.984;8.548;2023-03-17T13:46:21;2.25;;;1.10;;
32297;SDS011;18782;48.984;8.548;2023-03-17T13:48:54;1.35;;;0.80;;
32297;SDS011;18782;48.984;8.548;2023-03-17T13:51:23;3.35;;;1.52;;
32297;SDS011;18782;48.984;8.548;2023-03-17T13:53:54;3.33;;;1.00;;
32297;SDS011;18782;48.984;8.548;2023-03-17T13:56:25;2.28;;;1.00;;
32297;SDS011;18782;48.984;8.548;2023-03-17T13:59:10;2.80;;;1.00;;
32297;SDS011;18782;48.984;8.548;2023-03-17T14:01:40;1.98;;;0.90;;
32297;SDS011;18782;48.984;8.548;2023-03-17T14:04:16;3.83;;;0.77;;
32297;SDS011;18782;48.984;8.548;2023-03-17T14:06:47;2.00;;;1.10;;
32297;SDS011;18782;48.984;8.548;2023-03-17T14:12:09;5.50;;;4.03;;
32297;SDS011;18782;48.984;8.548;2023-03-17T14:14:41;2.35;;;1.10;;
32297;SDS011;18782;48.984;8.548;2023-03-17T14:17:17;5.20;;;3.13;;
32297;SDS011;18782;48.984;8.548;2023-03-17T14:19:58;3.63;;;2.20;;
32297;SDS011;18782;48.984;8.548;2023-03-17T14:22:26;1.80;;;1.10;;
32297;SDS011;18782;48.984;8.548;2023-03-17T14:24:54;3.65;;;2.50;;
32297;SDS011;18782;48.984;8.548;2023-03-17T14:27:26;1.73;;;0.80;;
32297;SDS011;18782;48.984;8.548;2023-03-17T14:30:05;2.53;;;1.07;;
32297;SDS011;18782;48.984;8.548;2023-03-17T14:32:35;2.72;;;0.90;;
32297;SDS011;18782;48.984;8.548;2023-03-17T14:35:03;3.55;;;1.10;;
32297;SDS011;18782;48.984;8.548;2023-03-17T14:37:32;2.78;;;1.10;;
32297;SDS011;18782;48.984;8.548;2023-03-17T14:39:59;2.95;;;1.70;;
32297;SDS011;18782;48.984;8.548;2023-03-17T14:42:27;3.65;;;1.40;;
32297;SDS011;18782;48.984;8.548;2023-03-17T14:45:00;1.85;;;1.00;;
32297;SDS011;18782;48.984;8.548;2023-03-17T14:47:30;3.17;;;1.67;;
32297;SDS011;18782;48.984;8.548;2023-03-17T14:50:03;2.13;;;1.10;;
32297;SDS011;18782;48.984;8.548;2023-03-17T14:52:39;2.20;;;1.13;;
32297;SDS011;18782;48.984;8.548;2023-03-17T14:55:11;2.95;;;1.27;;
32297;SDS011;18782;48.984;8.548;2023-03-17T14:57:40;2.85;;;1.50;;
32297;SDS011;18782;48.984;8.548;2023-03-17T15:00:14;1.83;;;1.00;;
32297;SDS011;18782;48.984;8.548;2023-03-17T15:03:01;2.42;;;1.20;;
32297;SDS011;18782;48.984;8.548;2023-03-17T15:05:42;1.70;;;1.20;;
32297;SDS011;18782;48.984;8.548;2023-03-17T15:08:26;3.92;;;1.20;;
32297;SDS011;18782;48.984;8.548;2023-03-17T15:11:06;3.47;;;1.67;;
32297;SDS011;18782;48.984;8.548;2023-03-17T15:13:36;5.13;;;1.50;;
32297;SDS011;18782;48.984;8.548;2023-03-17T15:16:04;2.45;;;1.55;;
32297;SDS011;18782;48.984;8.548;2023-03-17T15:18:34;3.03;;;1.63;;
32297;SDS011;18782;48.984;8.548;2023-03-17T15:21:03;2.65;;;1.38;;
32297;SDS011;18782;48.984;8.548;2023-03-17T15:23:35;3.20;;;1.75;;
32297;SDS011;18782;48.984;8.548;2023-03-17T15:26:19;3.03;;;1.67;;
32297;SDS011;18782;48.984;8.548;2023-03-17T15:28:48;5.10;;;2.10;;